createdAt,value
2019-03-26T00:02:29.860Z,9.78
2019-03-26T00:05:00.489Z,11.23
2019-03-26T00:07:31.167Z,10.28
2019-03-26T00:10:02.362Z,10.07
2019-03-26T00:12:33.128Z,10.68
2019-03-26T00:15:04.955Z,11.15
2019-03-26T00:17:36.266Z,11.18
2019-03-26T00:20:07.932Z,10.20
2019-03-26T00:22:38.802Z,10.82
2019-03-26T00:25:09.663Z,10.90
2019-03-26T00:27:40.377Z,10.30
2019-03-26T00:30:12.041Z,9.88
2019-03-26T00:32:42.788Z,10.10
2019-03-26T00:35:13.500Z,10.85
2019-03-26T00:37:44.174Z,10.65
2019-03-26T00:40:15.297Z,10.72
2019-03-26T00:42:45.986Z,10.63
2019-03-26T00:45:16.941Z,11.38
2019-03-26T00:47:47.617Z,10.15
2019-03-26T00:50:18.255Z,10.95
2019-03-26T00:52:48.948Z,12.07
2019-03-26T00:55:22.780Z,12.03
2019-03-26T00:57:52.417Z,12.98
2019-03-26T01:00:38.385Z,13.78
2019-03-26T01:03:09.354Z,12.15
2019-03-26T01:05:40.378Z,12.45
2019-03-26T01:08:12.413Z,12.30
2019-03-26T01:10:43.781Z,12.35
2019-03-26T01:13:14.481Z,12.30
2019-03-26T01:15:45.218Z,12.00
2019-03-26T01:18:16.169Z,12.30
2019-03-26T01:20:47.028Z,11.35
2019-03-26T01:23:17.929Z,11.08
2019-03-26T01:25:48.933Z,9.93
2019-03-26T01:28:19.702Z,10.28
2019-03-26T01:30:50.408Z,9.43
2019-03-26T01:33:21.012Z,9.55
2019-03-26T01:35:51.638Z,9.03
2019-03-26T01:38:22.325Z,10.15
2019-03-26T01:40:52.950Z,10.63
2019-03-26T01:43:23.722Z,10.03
2019-03-26T01:45:54.766Z,10.55
2019-03-26T01:48:25.466Z,10.10
2019-03-26T01:50:56.082Z,10.05
2019-03-26T01:53:26.816Z,10.58
2019-03-26T01:55:57.530Z,9.15
2019-03-26T01:58:28.190Z,10.03
2019-03-26T02:00:58.833Z,9.13
2019-03-26T02:03:29.992Z,9.55
2019-03-26T02:06:00.644Z,9.60
2019-03-26T02:08:31.742Z,9.60
2019-03-26T02:11:02.662Z,9.20
2019-03-26T02:13:33.311Z,9.15
2019-03-26T02:16:04.006Z,8.50
2019-03-26T02:18:34.728Z,9.60
2019-03-26T02:21:06.195Z,9.53
2019-03-26T02:23:37.014Z,8.75
2019-03-26T02:26:08.388Z,9.88
2019-03-26T02:28:39.093Z,10.80
2019-03-26T02:31:09.883Z,9.33
2019-03-26T02:33:40.562Z,9.05
2019-03-26T02:36:11.686Z,8.50
2019-03-26T02:38:42.912Z,9.98
2019-03-26T02:41:14.186Z,8.75
2019-03-26T02:43:45.279Z,8.93
2019-03-26T02:46:15.978Z,8.73
2019-03-26T02:48:48.369Z,7.90
2019-03-26T02:51:19.002Z,10.28
2019-03-26T02:53:49.739Z,8.30
2019-03-26T02:56:20.458Z,9.53
2019-03-26T02:58:51.081Z,8.53
2019-03-26T03:01:21.841Z,8.50
2019-03-26T03:03:52.610Z,8.18
2019-03-26T03:06:23.304Z,8.70
2019-03-26T03:08:53.996Z,10.00
2019-03-26T03:11:24.685Z,9.60
2019-03-26T03:13:55.358Z,9.98
2019-03-26T03:16:26.485Z,10.00
2019-03-26T03:18:57.166Z,11.57
2019-03-26T03:21:27.802Z,11.47
2019-03-26T03:23:58.503Z,11.40
2019-03-26T03:26:29.253Z,11.75
2019-03-26T03:29:00.060Z,13.32
2019-03-26T03:31:30.817Z,13.48
2019-03-26T03:34:01.597Z,14.60
2019-03-26T03:36:32.346Z,12.35
2019-03-26T03:39:04.793Z,12.73
2019-03-26T03:41:35.523Z,13.10
2019-03-26T03:44:06.370Z,13.35
2019-03-26T03:46:37.323Z,14.13
2019-03-26T03:49:08.202Z,14.07
2019-03-26T03:51:40.784Z,15.58
2019-03-26T03:54:12.823Z,14.38
2019-03-26T03:56:44.394Z,16.20
2019-03-26T03:59:15.548Z,16.62
2019-03-26T04:01:46.725Z,17.02
2019-03-26T04:04:17.619Z,17.60
2019-03-26T04:06:48.366Z,17.00
2019-03-26T04:09:19.738Z,17.12
2019-03-26T04:11:50.589Z,17.65
2019-03-26T04:14:21.726Z,20.37
2019-03-26T04:16:52.398Z,20.40
2019-03-26T04:19:23.003Z,19.10
2019-03-26T04:21:53.827Z,15.65
2019-03-26T04:24:24.496Z,16.62
2019-03-26T04:26:55.148Z,15.80
2019-03-26T04:29:25.823Z,16.60
2019-03-26T04:31:56.477Z,16.57
2019-03-26T04:34:27.144Z,15.15
2019-03-26T04:36:58.187Z,14.60
2019-03-26T04:39:28.845Z,13.43
2019-03-26T04:41:59.600Z,13.72
2019-03-26T04:44:33.125Z,13.83
2019-03-26T04:47:04.974Z,12.65
2019-03-26T04:49:35.685Z,12.05
2019-03-26T04:52:06.440Z,11.93
2019-03-26T04:54:37.121Z,11.08
2019-03-26T04:57:07.846Z,11.68
2019-03-26T04:59:38.976Z,9.83
2019-03-26T05:02:09.861Z,9.55
2019-03-26T05:04:40.521Z,9.18
2019-03-26T05:07:13.263Z,9.53
2019-03-26T05:09:44.153Z,10.15
2019-03-26T05:12:15.170Z,9.93
2019-03-26T05:14:45.887Z,9.23
2019-03-26T05:17:17.702Z,9.35
2019-03-26T05:19:48.384Z,10.28
2019-03-26T05:22:24.438Z,9.10
2019-03-26T05:24:51.838Z,9.35
2019-03-26T05:27:22.532Z,9.38
2019-03-26T05:29:53.181Z,9.65
2019-03-26T05:32:23.823Z,8.95
2019-03-26T05:34:54.523Z,7.62
2019-03-26T05:37:26.821Z,8.18
2019-03-26T05:39:57.522Z,8.30
2019-03-26T05:42:28.210Z,7.97
2019-03-26T05:44:59.040Z,9.40
2019-03-26T05:47:29.735Z,9.28
2019-03-26T05:50:00.426Z,9.10
2019-03-26T05:52:31.554Z,9.38
2019-03-26T05:55:02.214Z,9.05
2019-03-26T05:57:32.896Z,10.00
2019-03-26T06:00:03.560Z,9.63
2019-03-26T06:02:34.201Z,8.50
2019-03-26T06:05:05.352Z,8.50
2019-03-26T06:07:36.256Z,8.13
2019-03-26T06:10:09.067Z,8.18
2019-03-26T06:12:39.809Z,9.00
2019-03-26T06:15:11.337Z,8.40
2019-03-26T06:17:41.947Z,8.80
2019-03-26T06:20:13.499Z,8.60
2019-03-26T06:22:44.376Z,8.53
2019-03-26T06:25:14.991Z,9.63
2019-03-26T06:27:45.604Z,8.55
2019-03-26T06:30:16.975Z,9.20
2019-03-26T06:32:47.703Z,8.20
2019-03-26T06:35:18.836Z,8.50
2019-03-26T06:37:49.438Z,8.50
2019-03-26T06:40:20.216Z,8.08
2019-03-26T06:42:50.850Z,7.83
2019-03-26T06:45:21.509Z,7.65
2019-03-26T06:47:54.386Z,7.65
2019-03-26T06:50:25.267Z,8.40
2019-03-26T06:52:55.901Z,8.43
2019-03-26T06:55:26.575Z,7.65
2019-03-26T06:57:57.301Z,8.30
2019-03-26T07:00:37.269Z,8.75
2019-03-26T07:03:08.614Z,7.55
2019-03-26T07:05:39.198Z,7.40
2019-03-26T07:08:09.921Z,7.60
2019-03-26T07:10:40.637Z,7.28
2019-03-26T07:13:11.713Z,6.87
2019-03-26T07:15:42.507Z,7.42
2019-03-26T07:18:13.208Z,6.92
2019-03-26T07:20:44.437Z,7.03
2019-03-26T07:23:15.729Z,7.12
2019-03-26T07:25:46.403Z,7.07
2019-03-26T07:28:17.396Z,7.10
2019-03-26T07:30:48.218Z,6.25
2019-03-26T07:33:19.738Z,6.63
2019-03-26T07:35:51.165Z,6.63
2019-03-26T07:38:24.928Z,29.40
2019-03-26T07:41:01.982Z,7.20
2019-03-26T07:43:33.405Z,7.20
2019-03-26T07:46:04.372Z,6.20
2019-03-26T07:48:35.877Z,5.77
2019-03-26T07:51:06.743Z,5.80
2019-03-26T07:53:37.692Z,5.05
2019-03-26T07:56:08.536Z,5.13
2019-03-26T07:58:39.567Z,4.57
2019-03-26T08:01:10.535Z,4.90
2019-03-26T08:03:41.356Z,4.33
2019-03-26T08:06:12.225Z,4.13
2019-03-26T08:08:43.528Z,3.97
2019-03-26T08:11:14.311Z,3.47
2019-03-26T08:13:45.046Z,3.60
2019-03-26T08:16:16.007Z,3.23
2019-03-26T08:18:46.946Z,3.83
2019-03-26T08:21:18.410Z,2.70
2019-03-26T08:23:49.539Z,3.33
2019-03-26T08:26:20.697Z,2.90
2019-03-26T08:28:51.761Z,2.80
2019-03-26T08:31:22.674Z,2.80
2019-03-26T08:33:53.915Z,2.80
2019-03-26T08:36:24.779Z,2.80
2019-03-26T08:38:56.103Z,2.20
2019-03-26T08:41:27.020Z,2.53
2019-03-26T08:43:57.719Z,2.30
2019-03-26T08:46:29.624Z,2.70
2019-03-26T08:49:00.456Z,2.30
2019-03-26T08:51:31.205Z,1.80
2019-03-26T08:54:01.979Z,1.97
2019-03-26T08:56:32.989Z,2.27
2019-03-26T08:59:03.836Z,2.10
2019-03-26T09:01:34.628Z,1.93
2019-03-26T09:04:06.635Z,1.80
2019-03-26T09:06:37.616Z,1.83
2019-03-26T09:09:09.203Z,1.87
2019-03-26T09:11:40.220Z,1.60
2019-03-26T09:14:10.973Z,1.80
2019-03-26T09:16:41.795Z,1.57
2019-03-26T09:19:12.777Z,1.67
2019-03-26T09:21:43.460Z,1.67
2019-03-26T09:24:14.270Z,1.57
2019-03-26T09:26:45.605Z,1.93
2019-03-26T09:29:16.385Z,2.00
2019-03-26T09:31:47.267Z,1.93
2019-03-26T09:34:18.571Z,1.87
2019-03-26T09:36:49.245Z,2.10
2019-03-26T09:39:19.859Z,1.73
2019-03-26T09:41:50.485Z,1.63
2019-03-26T09:44:21.232Z,1.60
2019-03-26T09:46:51.809Z,1.73
2019-03-26T09:49:22.506Z,2.10
2019-03-26T09:51:53.112Z,2.20
2019-03-26T09:54:23.823Z,2.30
2019-03-26T09:56:54.555Z,2.60
2019-03-26T09:59:25.399Z,2.33
2019-03-26T10:01:56.607Z,1.90
2019-03-26T10:04:27.230Z,2.30
2019-03-26T10:06:57.852Z,2.37
2019-03-26T10:09:28.959Z,2.17
2019-03-26T10:12:00.268Z,2.20
2019-03-26T10:14:31.174Z,2.03
2019-03-26T10:17:01.866Z,1.87
2019-03-26T10:19:32.460Z,2.13
2019-03-26T10:22:03.151Z,2.00
2019-03-26T10:24:33.842Z,1.90
2019-03-26T10:27:04.628Z,1.93
2019-03-26T10:29:35.556Z,1.90
2019-03-26T10:32:06.215Z,1.70
2019-03-26T10:34:38.135Z,1.90
2019-03-26T10:37:08.953Z,1.80
2019-03-26T10:39:39.568Z,2.07
2019-03-26T10:42:10.697Z,2.47
2019-03-26T10:44:41.387Z,2.30
2019-03-26T10:47:12.792Z,2.83
2019-03-26T10:49:43.922Z,3.37
2019-03-26T10:52:14.631Z,3.77
2019-03-26T10:54:46.527Z,3.20
2019-03-26T10:57:17.155Z,3.40
2019-03-26T10:59:48.197Z,3.10
2019-03-26T11:02:19.178Z,3.07
2019-03-26T11:04:50.031Z,2.67
2019-03-26T11:07:22.257Z,3.20
2019-03-26T11:09:53.917Z,3.13
2019-03-26T11:12:24.672Z,2.90
2019-03-26T11:14:57.006Z,2.87
2019-03-26T11:17:27.886Z,2.83
2019-03-26T11:19:58.707Z,2.90
2019-03-26T11:22:29.595Z,3.00
2019-03-26T11:25:00.734Z,3.30
2019-03-26T11:27:31.586Z,3.20
2019-03-26T11:30:03.007Z,3.10
2019-03-26T11:32:33.796Z,3.10
2019-03-26T11:35:04.843Z,2.73
2019-03-26T11:37:35.797Z,3.20
2019-03-26T11:40:06.944Z,2.97
2019-03-26T11:42:37.952Z,2.80
2019-03-26T11:45:09.840Z,3.10
2019-03-26T11:47:41.484Z,3.13
2019-03-26T11:50:13.343Z,3.27
2019-03-26T11:52:44.119Z,3.23
2019-03-26T11:55:15.118Z,3.37
2019-03-26T11:57:46.463Z,3.23
2019-03-26T12:00:23.103Z,3.00
2019-03-26T12:02:53.886Z,3.40
2019-03-26T12:05:25.049Z,3.93
2019-03-26T12:07:55.826Z,3.60
2019-03-26T12:10:26.864Z,3.90
2019-03-26T12:12:57.964Z,4.77
2019-03-26T12:15:29.394Z,4.03
2019-03-26T12:18:00.368Z,3.40
2019-03-26T12:20:32.534Z,4.40
2019-03-26T12:23:03.465Z,3.20
2019-03-26T12:25:34.573Z,3.37
2019-03-26T12:28:05.789Z,3.40
2019-03-26T12:30:39.426Z,3.77
2019-03-26T12:33:10.946Z,3.47
2019-03-26T12:35:41.800Z,3.53
2019-03-26T12:38:20.770Z,4.17
2019-03-26T12:40:52.373Z,4.37
2019-03-26T12:43:25.785Z,6.00
2019-03-26T12:45:57.385Z,4.97
2019-03-26T12:48:28.398Z,5.80
2019-03-26T12:50:59.526Z,6.03
2019-03-26T12:53:30.541Z,6.53
2019-03-26T12:56:01.887Z,6.80
2019-03-26T12:58:36.259Z,5.70
2019-03-26T13:01:07.705Z,5.93
2019-03-26T13:03:38.721Z,3.43
2019-03-26T13:06:10.047Z,3.57
2019-03-26T13:08:41.209Z,3.80
2019-03-26T13:11:12.148Z,3.37
2019-03-26T13:13:43.481Z,3.97
2019-03-26T13:16:14.519Z,4.03
2019-03-26T13:18:45.526Z,3.10
2019-03-26T13:21:16.719Z,3.60
2019-03-26T13:23:47.777Z,3.73
2019-03-26T13:26:18.655Z,3.40
2019-03-26T13:28:49.762Z,3.67
2019-03-26T13:31:20.766Z,4.10
2019-03-26T13:33:51.692Z,4.27
2019-03-26T13:36:22.865Z,3.67
2019-03-26T13:38:53.902Z,3.00
2019-03-26T13:41:25.011Z,4.03
2019-03-26T13:43:56.807Z,4.20
2019-03-26T13:46:28.990Z,3.27
2019-03-26T13:49:00.157Z,3.40
2019-03-26T13:51:32.593Z,3.07
2019-03-26T13:54:03.284Z,4.17
2019-03-26T13:56:34.632Z,3.80
2019-03-26T13:59:07.464Z,2.90
2019-03-26T14:01:38.131Z,2.83
2019-03-26T14:04:09.529Z,4.17
2019-03-26T14:06:40.336Z,3.10
2019-03-26T14:09:11.425Z,3.30
2019-03-26T14:11:42.092Z,4.03
2019-03-26T14:14:13.287Z,4.10
2019-03-26T14:16:44.355Z,3.37
2019-03-26T14:19:15.047Z,3.27
2019-03-26T14:21:47.178Z,2.93
2019-03-26T14:24:23.495Z,3.73
2019-03-26T14:26:54.347Z,3.90
2019-03-26T14:29:25.170Z,3.13
2019-03-26T14:31:55.906Z,3.77
2019-03-26T14:34:26.581Z,3.90
2019-03-26T14:36:57.377Z,3.97
2019-03-26T14:39:28.150Z,3.37
2019-03-26T14:41:59.362Z,3.10
2019-03-26T14:44:29.977Z,3.77
2019-03-26T14:47:00.614Z,4.17
2019-03-26T14:49:31.282Z,4.53
2019-03-26T14:52:01.878Z,4.00
2019-03-26T14:54:32.635Z,4.20
2019-03-26T14:57:03.358Z,4.17
2019-03-26T14:59:34.999Z,4.10
2019-03-26T15:02:05.702Z,4.07
2019-03-26T15:04:36.521Z,3.10
2019-03-26T15:07:07.245Z,4.90
2019-03-26T15:09:37.973Z,4.50
2019-03-26T15:12:08.640Z,4.37
2019-03-26T15:14:39.334Z,5.07
2019-03-26T15:17:09.959Z,3.30
2019-03-26T15:19:40.555Z,3.57
2019-03-26T15:22:11.230Z,3.83
2019-03-26T15:24:41.891Z,4.63
2019-03-26T15:27:12.643Z,4.33
2019-03-26T15:29:43.663Z,4.63
2019-03-26T15:32:14.425Z,3.60
2019-03-26T15:34:45.117Z,5.00
2019-03-26T15:37:15.905Z,4.80
2019-03-26T15:39:46.544Z,3.80
2019-03-26T15:42:17.199Z,3.93
2019-03-26T15:44:47.784Z,3.83
2019-03-26T15:47:18.478Z,4.20
2019-03-26T15:49:49.262Z,4.03
2019-03-26T15:52:19.846Z,4.70
2019-03-26T15:54:50.481Z,4.27
2019-03-26T15:57:24.364Z,5.20
2019-03-26T15:59:55.254Z,5.27
2019-03-26T16:02:25.975Z,3.93
2019-03-26T16:04:56.733Z,5.62
2019-03-26T16:07:27.334Z,5.30
2019-03-26T16:09:58.370Z,4.80
2019-03-26T16:12:40.533Z,4.70
2019-03-26T16:15:01.368Z,4.70
2019-03-26T16:17:31.988Z,4.20
2019-03-26T16:20:02.584Z,4.80
2019-03-26T16:22:33.609Z,4.17
2019-03-26T16:25:04.420Z,5.00
2019-03-26T16:27:35.506Z,3.90
2019-03-26T16:30:06.861Z,4.03
2019-03-26T16:32:37.831Z,3.80
2019-03-26T16:35:08.847Z,3.57
2019-03-26T16:37:39.804Z,4.03
2019-03-26T16:40:10.687Z,3.80
2019-03-26T16:42:41.401Z,3.80
2019-03-26T16:45:13.022Z,4.20
2019-03-26T16:47:43.671Z,4.27
2019-03-26T16:50:14.510Z,4.17
2019-03-26T16:52:45.363Z,3.90
2019-03-26T16:55:16.257Z,4.10
2019-03-26T16:57:47.159Z,3.50
2019-03-26T17:00:26.255Z,4.80
2019-03-26T17:02:56.933Z,3.43
2019-03-26T17:05:28.663Z,3.63
2019-03-26T17:07:59.607Z,3.57
2019-03-26T17:10:30.609Z,4.40
2019-03-26T17:13:01.675Z,4.83
2019-03-26T17:15:32.394Z,5.17
2019-03-26T17:18:03.240Z,4.03
2019-03-26T17:20:34.082Z,4.27
2019-03-26T17:23:05.204Z,4.20
2019-03-26T17:25:36.220Z,5.13
2019-03-26T17:28:06.932Z,4.70
2019-03-26T17:30:37.577Z,4.40
2019-03-26T17:33:08.403Z,5.30
2019-03-26T17:35:39.112Z,4.63
2019-03-26T17:38:09.894Z,4.77
2019-03-26T17:40:40.690Z,5.60
2019-03-26T17:43:12.920Z,5.47
2019-03-26T17:45:43.737Z,5.27
2019-03-26T17:48:14.925Z,6.67
2019-03-26T17:50:45.660Z,4.30
2019-03-26T17:53:16.445Z,6.10
2019-03-26T17:55:49.207Z,4.20
2019-03-26T17:58:19.918Z,4.87
2019-03-26T18:00:51.319Z,5.85
2019-03-26T18:03:26.593Z,6.17
2019-03-26T18:05:54.775Z,5.03
2019-03-26T18:08:25.399Z,5.03
2019-03-26T18:10:56.341Z,4.50
2019-03-26T18:13:27.047Z,4.53
2019-03-26T18:15:57.737Z,4.53
2019-03-26T18:18:28.359Z,4.40
2019-03-26T18:20:59.282Z,3.77
2019-03-26T18:23:29.959Z,4.10
2019-03-26T18:26:01.158Z,4.95
2019-03-26T18:28:31.922Z,4.40
2019-03-26T18:31:03.428Z,4.07
2019-03-26T18:33:34.078Z,4.90
2019-03-26T18:36:04.862Z,4.30
2019-03-26T18:38:35.881Z,4.40
2019-03-26T18:41:06.675Z,4.17
2019-03-26T18:43:37.407Z,3.80
2019-03-26T18:46:08.081Z,3.65
2019-03-26T18:48:41.393Z,3.50
2019-03-26T18:51:11.735Z,3.33
2019-03-26T18:53:42.333Z,2.90
2019-03-26T18:56:12.965Z,3.20
2019-03-26T18:58:43.632Z,3.27
2019-03-26T19:01:14.926Z,2.47
2019-03-26T19:03:45.871Z,2.70
2019-03-26T19:06:16.628Z,2.92
2019-03-26T19:08:47.291Z,2.75
2019-03-26T19:11:18.992Z,3.25
2019-03-26T19:13:49.701Z,3.00
2019-03-26T19:16:20.669Z,2.83
2019-03-26T19:18:51.382Z,2.87
2019-03-26T19:21:22.137Z,2.70
2019-03-26T19:24:03.253Z,2.70
2019-03-26T19:26:25.168Z,2.52
2019-03-26T19:28:55.969Z,3.80
2019-03-26T19:31:26.746Z,2.70
2019-03-26T19:33:57.528Z,3.60
2019-03-26T19:36:28.407Z,2.60
2019-03-26T19:38:59.105Z,2.62
2019-03-26T19:41:30.072Z,3.08
2019-03-26T19:44:01.067Z,2.98
2019-03-26T19:46:31.912Z,3.65
2019-03-26T19:49:02.704Z,4.17
2019-03-26T19:51:33.660Z,3.60
2019-03-26T19:54:04.473Z,3.00
2019-03-26T19:56:35.692Z,2.80
2019-03-26T19:59:06.555Z,2.92
2019-03-26T20:01:37.378Z,3.35
2019-03-26T20:04:08.725Z,3.47
2019-03-26T20:06:39.348Z,3.72
2019-03-26T20:09:10.294Z,3.00
2019-03-26T20:11:40.945Z,2.98
2019-03-26T20:14:11.618Z,3.67
2019-03-26T20:16:42.413Z,3.15
2019-03-26T20:19:13.273Z,2.70
2019-03-26T20:21:43.907Z,3.40
2019-03-26T20:24:14.658Z,2.77
2019-03-26T20:26:45.823Z,3.70
2019-03-26T20:29:17.014Z,2.95
2019-03-26T20:31:50.882Z,3.40
2019-03-26T20:34:22.905Z,3.47
2019-03-26T20:36:53.920Z,2.92
2019-03-26T20:39:24.744Z,3.40
2019-03-26T20:41:55.759Z,3.42
2019-03-26T20:44:26.676Z,3.50
2019-03-26T20:46:57.725Z,3.25
2019-03-26T20:49:29.544Z,3.15
2019-03-26T20:52:00.683Z,3.30
2019-03-26T20:54:31.919Z,3.62
2019-03-26T20:57:03.179Z,3.40
2019-03-26T20:59:34.855Z,3.30
2019-03-26T21:02:05.595Z,3.67
2019-03-26T21:04:37.131Z,2.87
2019-03-26T21:07:08.620Z,4.10
2019-03-26T21:09:39.569Z,2.80
2019-03-26T21:12:10.536Z,3.45
2019-03-26T21:14:41.717Z,2.85
2019-03-26T21:17:12.391Z,3.75
2019-03-26T21:19:43.783Z,3.25
2019-03-26T21:22:16.561Z,2.70
2019-03-26T21:24:49.269Z,3.05
2019-03-26T21:27:20.046Z,2.50
2019-03-26T21:29:51.152Z,3.42
2019-03-26T21:32:23.309Z,2.72
2019-03-26T21:34:54.293Z,2.98
2019-03-26T21:37:25.114Z,3.25
2019-03-26T21:39:56.582Z,3.47
2019-03-26T21:42:28.571Z,3.60
2019-03-26T21:44:59.384Z,2.80
2019-03-26T21:47:33.214Z,2.65
2019-03-26T21:50:04.086Z,3.17
2019-03-26T21:52:35.457Z,4.10
2019-03-26T21:55:06.902Z,3.00
2019-03-26T21:57:38.902Z,4.03
2019-03-26T22:00:10.819Z,3.12
2019-03-26T22:02:41.806Z,2.52
2019-03-26T22:05:13.330Z,3.35
2019-03-26T22:07:44.155Z,3.50
2019-03-26T22:10:15.488Z,3.62
2019-03-26T22:12:46.156Z,2.85
2019-03-26T22:15:17.877Z,3.02
2019-03-26T22:17:49.188Z,3.35
2019-03-26T22:20:20.006Z,2.77
2019-03-26T22:22:51.141Z,2.95
2019-03-26T22:25:21.853Z,3.25
2019-03-26T22:27:53.016Z,3.50
2019-03-26T22:30:25.675Z,2.98
2019-03-26T22:32:56.785Z,3.58
2019-03-26T22:35:27.698Z,2.80
2019-03-26T22:37:58.523Z,3.08
2019-03-26T22:40:29.759Z,2.70
2019-03-26T22:43:00.863Z,2.70
2019-03-26T22:45:31.839Z,3.12
2019-03-26T22:48:03.087Z,3.10
2019-03-26T22:50:34.434Z,3.37
2019-03-26T22:53:05.517Z,3.20
2019-03-26T22:55:36.425Z,3.10
2019-03-26T22:58:07.198Z,3.25
2019-03-26T23:00:38.553Z,2.90
2019-03-26T23:03:09.667Z,2.80
2019-03-26T23:05:40.527Z,3.02
2019-03-26T23:08:11.480Z,2.50
2019-03-26T23:10:42.444Z,3.15
2019-03-26T23:13:13.607Z,3.08
2019-03-26T23:15:44.666Z,3.37
2019-03-26T23:18:15.672Z,2.40
2019-03-26T23:20:47.095Z,3.27
2019-03-26T23:23:18.085Z,2.72
2019-03-26T23:25:49.009Z,3.30
2019-03-26T23:28:19.828Z,2.98
2019-03-26T23:30:50.856Z,3.70
2019-03-26T23:33:22.625Z,3.05
2019-03-26T23:35:53.645Z,3.05
2019-03-26T23:38:24.383Z,2.90
2019-03-26T23:40:55.118Z,3.27
2019-03-26T23:43:25.850Z,3.83
2019-03-26T23:45:56.864Z,3.80
2019-03-26T23:48:28.040Z,2.95
2019-03-26T23:50:59.005Z,3.25
2019-03-26T23:53:29.978Z,3.00
2019-03-26T23:56:00.687Z,2.95
2019-03-26T23:58:31.500Z,2.60
